X  Zamknij Lotniskowe dane METAR     KDZJ Blairsville Airport
Temperatura
48°F Temperatura
41°F Punkt rosy
76% Wilgotność



Wiatr
0 MPH
0 KM/H
0 M/S
0 KTS



Cisza
N
Warunki bieżące

Zachmurzenie całkowite Zachmurzenie całkowite
Ciśnienie 1026.42 (hPa) - 30.31 (inHg)
Widoczność 10 (mil) - 16.1 (km)
Lotnisko
Kod lotniska KDZJ

Położenie: Blairsville Airport
Odległość: 19 (mi)

Metar:
KDZJ 081435Z AUTO 00000KT 10SM OVC036 09/05 A3031 RMK AO2 T00940047

Czas: 02-08-2023 14:35 EST